createdAt,value
2023-09-16T00:00:23.702Z,100953.69
2023-09-16T00:01:25.829Z,100958.78
2023-09-16T00:02:27.912Z,100962.16
2023-09-16T00:03:30.028Z,100956.59
2023-09-16T00:04:32.107Z,100963.00
2023-09-16T00:05:35.524Z,100952.50
2023-09-16T00:06:37.605Z,100962.53
2023-09-16T00:07:39.630Z,100952.28
2023-09-16T00:08:43.512Z,100964.22
2023-09-16T00:09:45.559Z,100958.44
2023-09-16T00:10:49.043Z,100957.34
2023-09-16T00:11:51.270Z,100952.75
2023-09-16T00:12:53.334Z,100959.16
2023-09-16T00:13:55.936Z,100958.06
2023-09-16T00:14:57.965Z,100959.75
2023-09-16T00:16:00.044Z,100964.22
2023-09-16T00:17:05.279Z,100964.00
2023-09-16T00:18:07.442Z,100962.53
2023-09-16T00:19:11.027Z,100960.59
2023-09-16T00:20:16.400Z,100964.47
2023-09-16T00:21:19.118Z,100959.16
2023-09-16T00:22:22.743Z,100966.63
2023-09-16T00:23:24.732Z,100966.03
2023-09-16T00:24:26.759Z,100965.53
2023-09-16T00:25:28.797Z,100965.78
2023-09-16T00:26:30.768Z,100964.69
2023-09-16T00:27:32.775Z,100959.75
2023-09-16T00:28:36.668Z,100959.16
2023-09-16T00:29:38.694Z,100963.63
2023-09-16T00:30:43.930Z,100967.72
2023-09-16T00:31:46.216Z,100959.38
2023-09-16T00:32:48.295Z,100963.84
2023-09-16T00:33:50.702Z,100952.75
2023-09-16T00:34:52.777Z,100961.44
2023-09-16T00:35:54.807Z,100960.59
2023-09-16T00:36:56.852Z,100960.97
2023-09-16T00:37:58.875Z,100957.34
2023-09-16T00:39:00.893Z,100961.22
2023-09-16T00:40:03.265Z,100965.22
2023-09-16T00:41:05.300Z,100962.19
2023-09-16T00:42:07.318Z,100966.44
2023-09-16T00:43:09.318Z,100958.69
2023-09-16T00:44:11.835Z,100960.88
2023-09-16T00:45:15.490Z,100960.41
2023-09-16T00:46:17.810Z,100962.31
2023-09-16T00:47:19.853Z,100971.28
2023-09-16T00:48:21.867Z,100959.31
2023-09-16T00:49:23.892Z,100963.53
2023-09-16T00:50:25.895Z,100965.47
2023-09-16T00:51:28.024Z,100967.41
2023-09-16T00:52:30.682Z,100966.31
2023-09-16T00:53:32.688Z,100974.28
2023-09-16T00:54:35.048Z,100973.81
2023-09-16T00:55:37.034Z,100972.72
2023-09-16T00:56:39.054Z,100977.19
2023-09-16T00:57:42.004Z,100977.81
2023-09-16T00:58:44.028Z,100967.53
2023-09-16T00:59:46.015Z,100978.19
2023-09-16T01:00:48.093Z,100964.28
2023-09-16T01:01:53.318Z,100972.63
2023-09-16T01:02:55.658Z,100973.47
2023-09-16T01:03:57.736Z,100972.38
2023-09-16T01:04:59.892Z,100973.00
2023-09-16T01:06:02.020Z,100971.53
2023-09-16T01:07:04.220Z,100977.94
2023-09-16T01:08:06.350Z,100975.53
2023-09-16T01:09:09.890Z,100980.00
2023-09-16T01:10:11.946Z,100970.22
2023-09-16T01:11:14.022Z,100972.38
2023-09-16T01:12:16.026Z,100972.38
2023-09-16T01:13:18.035Z,100969.00
2023-09-16T01:14:20.055Z,100970.44
2023-09-16T01:15:23.780Z,100969.38
2023-09-16T01:16:37.390Z,100971.28
2023-09-16T01:17:43.811Z,100966.97
2023-09-16T01:18:49.023Z,100972.28
2023-09-16T01:19:58.349Z,100976.97
2023-09-16T01:21:00.375Z,100969.72
2023-09-16T01:22:02.514Z,100969.25
2023-09-16T01:23:04.589Z,100967.09
2023-09-16T01:24:24.906Z,100975.41
2023-09-16T01:25:27.987Z,100982.44
2023-09-16T01:26:29.973Z,100975.06
2023-09-16T01:27:31.958Z,100973.97
2023-09-16T01:28:33.994Z,100975.28
2023-09-16T01:29:36.052Z,100982.31
2023-09-16T01:30:39.635Z,100983.16
2023-09-16T01:31:42.387Z,100982.78
2023-09-16T01:32:48.423Z,100976.63
2023-09-16T01:33:50.652Z,100980.94
2023-09-16T01:34:54.208Z,100971.41
2023-09-16T01:36:00.150Z,100981.28
2023-09-16T01:37:02.215Z,100983.09
2023-09-16T01:38:04.728Z,100979.09
2023-09-16T01:39:06.803Z,100980.78
2023-09-16T01:40:09.335Z,100978.47
2023-09-16T01:41:11.399Z,100975.56
2023-09-16T01:42:13.407Z,100981.13
2023-09-16T01:43:16.478Z,100982.44
2023-09-16T01:44:18.464Z,100979.06
2023-09-16T01:45:20.436Z,100979.28
2023-09-16T01:46:22.458Z,100980.38
2023-09-16T01:47:24.562Z,100981.84
2023-09-16T01:48:36.586Z,100969.28
2023-09-16T01:49:42.723Z,100973.97
2023-09-16T01:50:46.136Z,100970.72
2023-09-16T01:51:48.181Z,100973.50
2023-09-16T01:52:50.209Z,100970.72
2023-09-16T01:53:52.234Z,100974.72
2023-09-16T01:54:54.305Z,100968.09
2023-09-16T01:55:56.319Z,100971.34
2023-09-16T01:56:58.528Z,100973.88
2023-09-16T01:58:00.544Z,100977.03
2023-09-16T01:59:02.899Z,100970.25
2023-09-16T02:00:06.629Z,100960.84
2023-09-16T02:01:09.697Z,100969.78
2023-09-16T02:02:12.537Z,100971.09
2023-09-16T02:03:14.548Z,100973.88
2023-09-16T02:04:16.578Z,100973.03
2023-09-16T02:05:18.588Z,100968.09
2023-09-16T02:06:20.605Z,100974.72
2023-09-16T02:07:22.623Z,100969.78
2023-09-16T02:08:24.645Z,100961.22
2023-09-16T02:09:26.623Z,100965.69
2023-09-16T02:10:29.504Z,100964.69
2023-09-16T02:11:32.335Z,100970.03
2023-09-16T02:12:34.767Z,100964.22
2023-09-16T02:13:37.223Z,100970.38
2023-09-16T02:14:40.207Z,100967.63
2023-09-16T02:15:47.085Z,100968.94
2023-09-16T02:16:49.197Z,100969.16
2023-09-16T02:17:51.446Z,100971.72
2023-09-16T02:18:53.499Z,100968.94
2023-09-16T02:19:55.516Z,100969.78
2023-09-16T02:20:57.482Z,100977.50
2023-09-16T02:21:59.507Z,100967.25
2023-09-16T02:23:03.004Z,100968.94
2023-09-16T02:24:05.627Z,100971.72
2023-09-16T02:25:07.902Z,100961.06
2023-09-16T02:26:09.911Z,100972.66
2023-09-16T02:27:13.539Z,100970.13
2023-09-16T02:28:15.819Z,100975.19
2023-09-16T02:29:17.840Z,100975.66
2023-09-16T02:30:19.812Z,100979.53
2023-09-16T02:31:21.871Z,100979.78
2023-09-16T02:32:23.960Z,100976.75
2023-09-16T02:33:26.086Z,100970.97
2023-09-16T02:34:28.434Z,100962.03
2023-09-16T02:35:30.411Z,100975.44
2023-09-16T02:36:32.411Z,100976.16
2023-09-16T02:37:34.409Z,100974.81
2023-09-16T02:38:36.372Z,100981.00
2023-09-16T02:39:38.384Z,100981.00
2023-09-16T02:40:43.426Z,100973.38
2023-09-16T02:41:45.399Z,100978.91
2023-09-16T02:42:47.412Z,100982.78
2023-09-16T02:43:49.480Z,100977.69
2023-09-16T02:44:52.122Z,100981.09
2023-09-16T02:45:57.107Z,100974.69
2023-09-16T02:46:59.141Z,100978.31
2023-09-16T02:48:01.158Z,100988.94
2023-09-16T02:49:04.423Z,100993.28
2023-09-16T02:50:08.624Z,100991.59
2023-09-16T02:51:10.982Z,100976.63
2023-09-16T02:52:13.055Z,100975.28
2023-09-16T02:53:15.080Z,100991.72
2023-09-16T02:54:17.438Z,100980.25
2023-09-16T02:55:19.454Z,100993.03
2023-09-16T02:56:21.509Z,100978.06
2023-09-16T02:57:23.485Z,100984.09
2023-09-16T02:58:25.469Z,100976.00
2023-09-16T02:59:27.434Z,100988.34
2023-09-16T03:00:29.429Z,100989.19
2023-09-16T03:01:31.454Z,100993.50
2023-09-16T03:02:33.815Z,100983.25
2023-09-16T03:03:36.488Z,100991.59
2023-09-16T03:04:38.546Z,100994.81
2023-09-16T03:05:46.672Z,100991.81
2023-09-16T03:06:49.525Z,100991.44
2023-09-16T03:07:51.530Z,100988.66
2023-09-16T03:08:53.963Z,100992.75
2023-09-16T03:09:56.233Z,100997.56
2023-09-16T03:11:04.880Z,101001.56
2023-09-16T03:12:06.919Z,100993.69
2023-09-16T03:13:08.967Z,100996.31
2023-09-16T03:14:11.011Z,101001.25
2023-09-16T03:15:13.009Z,100998.72
2023-09-16T03:16:22.481Z,100995.31
2023-09-16T03:17:24.561Z,100989.63
2023-09-16T03:18:26.597Z,100998.81
2023-09-16T03:19:29.668Z,100997.31
2023-09-16T03:20:31.717Z,101005.25
2023-09-16T03:21:33.761Z,101001.41
2023-09-16T03:22:35.810Z,100998.16
2023-09-16T03:23:37.848Z,100999.47
2023-09-16T03:24:40.186Z,101000.78
2023-09-16T03:25:42.190Z,100998.25
2023-09-16T03:26:44.240Z,100997.63
2023-09-16T03:27:46.344Z,100997.63
2023-09-16T03:28:48.701Z,100996.53
2023-09-16T03:29:51.008Z,100996.78
2023-09-16T03:30:53.107Z,100998.72
2023-09-16T03:31:55.353Z,101002.56
2023-09-16T03:32:57.501Z,101006.19
2023-09-16T03:33:59.644Z,101004.72
2023-09-16T03:35:01.704Z,101004.50
2023-09-16T03:36:03.932Z,101003.19
2023-09-16T03:37:05.940Z,101006.19
2023-09-16T03:38:07.954Z,101006.19
2023-09-16T03:39:09.972Z,101010.03
2023-09-16T03:40:11.978Z,101009.81
2023-09-16T03:41:14.373Z,101008.13
2023-09-16T03:42:16.365Z,101005.09
2023-09-16T03:43:19.350Z,101004.25
2023-09-16T03:44:21.356Z,100997.41
2023-09-16T03:45:29.696Z,101006.34
2023-09-16T03:46:33.259Z,101001.03
2023-09-16T03:47:35.388Z,101001.88
2023-09-16T03:48:37.468Z,101006.09
2023-09-16T03:49:39.502Z,101005.03
2023-09-16T03:50:41.510Z,101005.03
2023-09-16T03:51:43.517Z,101007.81
2023-09-16T03:52:45.493Z,101008.41
2023-09-16T03:53:48.464Z,101007.56
2023-09-16T03:54:50.484Z,101011.19
2023-09-16T03:55:55.440Z,101017.81
2023-09-16T03:56:57.410Z,101014.59
2023-09-16T03:58:01.646Z,101019.31
2023-09-16T03:59:03.890Z,101011.84
2023-09-16T04:00:07.895Z,101015.66
2023-09-16T04:01:09.885Z,101011.84
2023-09-16T04:02:11.901Z,101011.19
2023-09-16T04:03:13.913Z,101011.66
2023-09-16T04:04:15.978Z,101023.84
2023-09-16T04:05:18.028Z,101012.03
2023-09-16T04:06:20.027Z,101012.03
2023-09-16T04:07:23.506Z,101011.19
2023-09-16T04:08:30.687Z,101011.00
2023-09-16T04:09:40.042Z,101014.16
2023-09-16T04:10:42.075Z,101014.75
2023-09-16T04:11:44.082Z,101015.84
2023-09-16T04:12:46.699Z,101011.97
2023-09-16T04:13:50.147Z,101008.97
2023-09-16T04:14:52.389Z,101008.13
2023-09-16T04:15:55.821Z,101010.66
2023-09-16T04:16:57.884Z,101009.81
2023-09-16T04:17:59.958Z,101010.19
2023-09-16T04:19:02.032Z,101011.50
2023-09-16T04:20:07.196Z,101010.44
2023-09-16T04:21:09.284Z,101004.28
2023-09-16T04:22:11.307Z,101007.66
2023-09-16T04:23:13.375Z,101014.06
2023-09-16T04:24:15.360Z,101004.88
2023-09-16T04:25:17.382Z,101014.66
2023-09-16T04:26:21.655Z,101012.13
2023-09-16T04:27:23.733Z,101012.97
2023-09-16T04:28:25.969Z,101012.97
2023-09-16T04:29:28.100Z,101012.50
2023-09-16T04:30:30.132Z,101015.06
2023-09-16T04:31:32.162Z,101012.88
2023-09-16T04:32:34.237Z,101015.44
2023-09-16T04:33:36.270Z,101011.56
2023-09-16T04:34:38.290Z,101017.13
2023-09-16T04:35:50.537Z,101016.03
2023-09-16T04:36:56.002Z,101022.44
2023-09-16T04:37:58.029Z,101017.88
2023-09-16T04:39:00.040Z,101017.66
2023-09-16T04:40:09.119Z,101021.28
2023-09-16T04:41:11.185Z,101022.13
2023-09-16T04:42:13.164Z,101022.13
2023-09-16T04:43:15.381Z,101023.81
2023-09-16T04:44:17.635Z,101027.44
2023-09-16T04:45:19.628Z,101025.28
2023-09-16T04:46:21.744Z,101022.72
2023-09-16T04:47:24.277Z,101018.25
2023-09-16T04:48:26.413Z,101031.06
2023-09-16T04:49:28.429Z,101022.50
2023-09-16T04:50:30.761Z,101023.97
2023-09-16T04:51:34.969Z,101020.94
2023-09-16T04:52:37.235Z,101018.16
2023-09-16T04:53:39.213Z,101024.94
2023-09-16T04:54:42.197Z,101022.53
2023-09-16T04:55:44.301Z,101016.75
2023-09-16T04:56:46.265Z,101024.00
2023-09-16T04:57:48.270Z,101025.69
2023-09-16T04:58:51.342Z,101024.63
2023-09-16T04:59:53.568Z,101016.91
2023-09-16T05:00:55.595Z,101024.75
2023-09-16T05:02:00.911Z,101020.66
2023-09-16T05:03:03.084Z,101022.59
2023-09-16T05:04:05.217Z,101025.97
2023-09-16T05:05:07.571Z,101032.38
2023-09-16T05:06:09.614Z,101025.50
2023-09-16T05:07:11.613Z,101027.56
2023-09-16T05:08:13.701Z,101032.88
2023-09-16T05:09:15.697Z,101032.19
2023-09-16T05:10:17.729Z,101040.03
2023-09-16T05:11:19.733Z,101040.66
2023-09-16T05:12:21.744Z,101036.78
2023-09-16T05:13:23.763Z,101040.41
2023-09-16T05:14:25.876Z,101034.84
2023-09-16T05:15:27.966Z,101041.88
2023-09-16T05:16:30.112Z,101035.22
2023-09-16T05:17:32.165Z,101041.16
2023-09-16T05:18:34.147Z,101041.78
2023-09-16T05:19:36.164Z,101038.50
2023-09-16T05:20:38.198Z,101038.28
2023-09-16T05:21:40.246Z,101037.56
2023-09-16T05:22:42.533Z,101043.72
2023-09-16T05:23:44.576Z,101044.81
2023-09-16T05:24:46.675Z,101046.31
2023-09-16T05:25:49.577Z,101048.59
2023-09-16T05:26:51.557Z,101037.00
2023-09-16T05:27:53.591Z,101042.31
2023-09-16T05:28:57.802Z,101041.38
2023-09-16T05:29:59.799Z,101044.16
2023-09-16T05:31:03.952Z,101039.44
2023-09-16T05:32:06.218Z,101038.94
2023-09-16T05:33:08.413Z,101041.00
2023-09-16T05:34:10.441Z,101045.50
2023-09-16T05:35:12.454Z,101038.84
2023-09-16T05:36:14.438Z,101036.06
2023-09-16T05:37:16.398Z,101032.31
2023-09-16T05:38:18.380Z,101039.56
2023-09-16T05:39:20.343Z,101039.94
2023-09-16T05:40:22.342Z,101031.34
2023-09-16T05:41:24.344Z,101041.50
2023-09-16T05:42:26.335Z,101036.56
2023-09-16T05:43:28.321Z,101035.47
2023-09-16T05:44:30.289Z,101040.53
2023-09-16T05:45:32.646Z,101033.41
2023-09-16T05:46:34.782Z,101043.19
2023-09-16T05:47:36.859Z,101030.63
2023-09-16T05:48:38.894Z,101040.41
2023-09-16T05:49:40.869Z,101039.69
2023-09-16T05:50:42.868Z,101036.19
2023-09-16T05:51:45.066Z,101040.41
2023-09-16T05:52:47.077Z,101036.28
2023-09-16T05:53:49.074Z,101039.94
2023-09-16T05:54:51.069Z,101044.41
2023-09-16T05:55:54.347Z,101038.59
2023-09-16T05:56:56.366Z,101037.75
2023-09-16T05:58:01.782Z,101049.00
2023-09-16T05:59:04.591Z,101043.66
2023-09-16T06:00:07.804Z,101053.22
2023-09-16T06:01:09.988Z,101041.50
2023-09-16T06:02:12.133Z,101037.38
2023-09-16T06:03:14.142Z,101037.97
2023-09-16T06:04:16.217Z,101043.53
2023-09-16T06:05:18.271Z,101040.50
2023-09-16T06:06:20.919Z,101043.91
2023-09-16T06:07:26.964Z,101042.44
2023-09-16T06:08:29.064Z,101042.22
2023-09-16T06:09:31.063Z,101043.41
2023-09-16T06:10:33.097Z,101049.47
2023-09-16T06:11:35.072Z,101048.13
2023-09-16T06:12:37.099Z,101058.66
2023-09-16T06:13:39.201Z,101050.66
2023-09-16T06:14:41.203Z,101050.19
2023-09-16T06:15:45.101Z,101049.34
2023-09-16T06:16:47.218Z,101052.13
2023-09-16T06:17:49.331Z,101048.25
2023-09-16T06:18:51.603Z,101052.13
2023-09-16T06:19:55.678Z,101053.34
2023-09-16T06:20:57.675Z,101055.28
2023-09-16T06:21:59.735Z,101047.28
2023-09-16T06:23:04.413Z,101055.16
2023-09-16T06:24:06.519Z,101050.19
2023-09-16T06:25:08.768Z,101053.09
2023-09-16T06:26:11.677Z,101048.34
2023-09-16T06:27:15.404Z,101054.78
2023-09-16T06:28:17.426Z,101052.84
2023-09-16T06:29:19.436Z,101059.25
2023-09-16T06:30:21.438Z,101054.53
2023-09-16T06:31:23.509Z,101062.38
2023-09-16T06:32:25.564Z,101061.91
2023-09-16T06:33:27.554Z,101059.59
2023-09-16T06:34:29.559Z,101054.28
2023-09-16T06:35:31.549Z,101051.84
2023-09-16T06:36:33.604Z,101053.69
2023-09-16T06:37:35.665Z,101049.44
2023-09-16T06:38:37.637Z,101050.31
2023-09-16T06:39:41.371Z,101055.88
2023-09-16T06:40:43.407Z,101056.47
2023-09-16T06:41:45.365Z,101055.88
2023-09-16T06:42:50.212Z,101058.41
2023-09-16T06:43:52.305Z,101056.34
2023-09-16T06:44:56.200Z,101055.16
2023-09-16T06:45:58.268Z,101061.06
2023-09-16T06:47:00.347Z,101055.75
2023-09-16T06:48:02.435Z,101051.63
2023-09-16T06:49:04.480Z,101061.31
2023-09-16T06:50:09.616Z,101059.88
2023-09-16T06:51:11.678Z,101059.88
2023-09-16T06:52:13.796Z,101063.03
2023-09-16T06:53:20.816Z,101060.84
2023-09-16T06:54:22.828Z,101060.84
2023-09-16T06:55:24.872Z,101061.94
2023-09-16T06:56:26.856Z,101058.28
2023-09-16T06:57:28.858Z,101068.44
2023-09-16T06:58:31.145Z,101064.81
2023-09-16T06:59:33.151Z,101069.53
2023-09-16T07:00:36.542Z,101062.88
2023-09-16T07:01:38.649Z,101061.19
2023-09-16T07:02:40.744Z,101067.97
2023-09-16T07:03:42.906Z,101060.44
2023-09-16T07:04:46.776Z,101073.28
2023-09-16T07:05:49.377Z,101070.50
2023-09-16T07:06:51.416Z,101069.31
2023-09-16T07:07:54.061Z,101070.50
2023-09-16T07:08:56.072Z,101073.63
2023-09-16T07:09:58.126Z,101072.78
2023-09-16T07:11:00.159Z,101071.09
2023-09-16T07:12:02.197Z,101069.41
2023-09-16T07:13:04.362Z,101071.09
2023-09-16T07:14:06.369Z,101070.13
2023-09-16T07:15:08.811Z,101074.84
2023-09-16T07:16:12.716Z,101083.66
2023-09-16T07:17:14.818Z,101079.44
2023-09-16T07:18:16.807Z,101085.34
2023-09-16T07:19:18.883Z,101081.72
2023-09-16T07:20:20.899Z,101079.03
2023-09-16T07:21:22.936Z,101079.63
2023-09-16T07:22:26.631Z,101086.41
2023-09-16T07:23:28.676Z,101080.84
2023-09-16T07:24:30.678Z,101083.38
2023-09-16T07:25:32.690Z,101083.88
2023-09-16T07:26:34.686Z,101082.53
2023-09-16T07:27:36.684Z,101080.59
2023-09-16T07:28:38.702Z,101077.81
2023-09-16T07:29:40.712Z,101081.94
2023-09-16T07:30:42.732Z,101082.78
2023-09-16T07:31:44.835Z,101080.00
2023-09-16T07:32:47.031Z,101083.13
2023-09-16T07:33:49.273Z,101078.41
2023-09-16T07:34:51.295Z,101087.72
2023-09-16T07:35:54.170Z,101083.22
2023-09-16T07:36:57.747Z,101080.44
2023-09-16T07:37:59.802Z,101077.91
2023-09-16T07:39:01.808Z,101080.69
2023-09-16T07:40:04.040Z,101085.91
2023-09-16T07:41:06.088Z,101082.88
2023-09-16T07:42:08.059Z,101080.34
2023-09-16T07:43:12.102Z,101084.56
2023-09-16T07:44:14.170Z,101076.47
2023-09-16T07:45:16.389Z,101078.50
2023-09-16T07:46:18.432Z,101081.19
2023-09-16T07:47:20.502Z,101082.13
2023-09-16T07:48:22.512Z,101073.44
2023-09-16T07:49:24.520Z,101075.72
2023-09-16T07:50:26.542Z,101083.47
2023-09-16T07:51:28.522Z,101079.34
2023-09-16T07:52:31.192Z,101078.25
2023-09-16T07:53:33.200Z,101080.19
2023-09-16T07:54:35.268Z,101077.41
2023-09-16T07:55:37.290Z,101089.16
2023-09-16T07:56:39.264Z,101079.19
2023-09-16T07:57:41.359Z,101078.69
2023-09-16T07:58:43.446Z,101086.56
2023-09-16T07:59:45.451Z,101082.69
2023-09-16T08:00:47.543Z,101081.59
2023-09-16T08:01:49.729Z,101084.72
2023-09-16T08:02:51.919Z,101090.53
2023-09-16T08:03:54.161Z,101090.28
2023-09-16T08:04:56.429Z,101091.16
2023-09-16T08:05:59.149Z,101097.56
2023-09-16T08:07:01.167Z,101102.28
2023-09-16T08:08:03.815Z,101097.91
2023-09-16T08:09:05.834Z,101098.16
2023-09-16T08:10:08.225Z,101096.56
2023-09-16T08:11:10.327Z,101102.50
2023-09-16T08:12:12.419Z,101095.81
2023-09-16T08:13:14.472Z,101092.31
2023-09-16T08:14:16.483Z,101093.75
2023-09-16T08:15:18.469Z,101099.69
2023-09-16T08:16:20.541Z,101100.44
2023-09-16T08:17:22.532Z,101096.88
2023-09-16T08:18:24.527Z,101090.06
2023-09-16T08:19:26.581Z,101098.09
2023-09-16T08:20:30.098Z,101096.97
2023-09-16T08:21:32.146Z,101094.53
2023-09-16T08:22:34.180Z,101088.13
2023-09-16T08:23:36.244Z,101093.94
2023-09-16T08:24:38.218Z,101097.06
2023-09-16T08:25:40.223Z,101103.50
2023-09-16T08:26:42.259Z,101092.59
2023-09-16T08:27:44.277Z,101095.13
2023-09-16T08:28:46.330Z,101095.13
2023-09-16T08:29:50.771Z,101099.38
2023-09-16T08:30:52.872Z,101091.25
2023-09-16T08:31:54.986Z,101091.59
2023-09-16T08:32:57.154Z,101094.13
2023-09-16T08:34:02.037Z,101089.06
2023-09-16T08:35:04.114Z,101098.00
2023-09-16T08:36:06.208Z,101100.81
2023-09-16T08:37:09.814Z,101090.00
2023-09-16T08:38:12.056Z,101103.84
2023-09-16T08:39:14.085Z,101090.34
2023-09-16T08:40:16.702Z,101096.75
2023-09-16T08:41:22.065Z,101090.94
2023-09-16T08:42:52.291Z,101092.72
2023-09-16T08:43:54.963Z,101090.25
2023-09-16T08:44:57.420Z,101091.94
2023-09-16T08:46:03.477Z,101090.34
2023-09-16T08:47:11.576Z,101094.56
2023-09-16T08:48:15.956Z,101097.09
2023-09-16T08:49:18.238Z,101090.19
2023-09-16T08:50:22.488Z,101090.50
2023-09-16T08:51:24.477Z,101095.06
2023-09-16T08:52:26.650Z,101088.72
2023-09-16T08:53:29.773Z,101090.75
2023-09-16T08:54:31.785Z,101093.56
2023-09-16T08:55:36.283Z,101090.25
2023-09-16T08:56:38.299Z,101098.69
2023-09-16T08:57:56.020Z,101093.44
2023-09-16T08:58:58.043Z,101088.22
2023-09-16T09:00:00.077Z,101087.22
2023-09-16T09:01:04.007Z,101090.00
2023-09-16T09:02:06.309Z,101086.38
2023-09-16T09:03:08.384Z,101084.56
2023-09-16T09:04:10.843Z,101080.75
2023-09-16T09:05:13.005Z,101082.75
2023-09-16T09:06:23.346Z,101081.47
2023-09-16T09:07:33.618Z,101078.47
2023-09-16T09:08:35.672Z,101078.47
2023-09-16T09:09:37.681Z,101081.31
2023-09-16T09:10:41.005Z,101080.28
2023-09-16T09:11:44.621Z,101078.66
2023-09-16T09:12:48.163Z,101085.41
2023-09-16T09:13:50.265Z,101085.59
2023-09-16T09:14:52.240Z,101072.03
2023-09-16T09:15:57.848Z,101083.34
2023-09-16T09:17:01.715Z,101084.56
2023-09-16T09:18:03.999Z,101077.28
2023-09-16T09:19:06.072Z,101080.44
2023-09-16T09:20:21.397Z,101076.28
2023-09-16T09:21:23.380Z,101076.59
2023-09-16T09:22:25.403Z,101077.47
2023-09-16T09:23:27.411Z,101071.94
2023-09-16T09:24:29.499Z,101072.84
2023-09-16T09:25:34.035Z,101067.81
2023-09-16T09:26:36.063Z,101064.47
2023-09-16T09:27:38.038Z,101069.81
2023-09-16T09:28:39.999Z,101072.34
2023-09-16T09:29:42.056Z,101071.59
2023-09-16T09:30:44.146Z,101073.84
2023-09-16T09:31:46.820Z,101072.44
2023-09-16T09:32:48.912Z,101073.31
2023-09-16T09:33:51.254Z,101071.09
2023-09-16T09:34:53.232Z,101071.19
2023-09-16T09:36:13.873Z,101074.63
2023-09-16T09:37:16.782Z,101068.22
2023-09-16T09:38:19.211Z,101074.97
2023-09-16T09:39:21.228Z,101069.16
2023-09-16T09:40:23.235Z,101075.31
2023-09-16T09:41:25.272Z,101074.25
2023-09-16T09:42:27.276Z,101074.25
2023-09-16T09:43:32.682Z,101079.56
2023-09-16T09:44:35.724Z,101069.47
2023-09-16T09:45:38.995Z,101076.00
2023-09-16T09:46:41.181Z,101074.59
2023-09-16T09:47:43.375Z,101075.19
2023-09-16T09:48:45.541Z,101069.03
2023-09-16T09:49:48.810Z,101078.00
2023-09-16T09:50:51.031Z,101078.84
2023-09-16T09:51:53.137Z,101078.28
2023-09-16T09:52:55.828Z,101075.50
2023-09-16T09:53:57.868Z,101084.22
2023-09-16T09:55:01.753Z,101084.22
2023-09-16T09:56:04.880Z,101086.50
2023-09-16T09:57:06.996Z,101084.28
2023-09-16T09:58:09.049Z,101092.19
2023-09-16T09:59:11.166Z,101074.81
2023-09-16T10:00:17.700Z,101079.03
2023-09-16T10:01:19.784Z,101076.41
2023-09-16T10:02:27.774Z,101074.53
2023-09-16T10:03:29.991Z,101085.22
2023-09-16T10:04:32.136Z,101077.66
2023-09-16T10:05:36.339Z,101077.41
2023-09-16T10:06:38.335Z,101081.00
2023-09-16T10:07:42.977Z,101076.59
2023-09-16T10:08:45.057Z,101080.28
2023-09-16T10:09:47.131Z,101073.00
2023-09-16T10:10:49.444Z,101074.69
2023-09-16T10:11:52.241Z,101075.00
2023-09-16T10:12:57.558Z,101069.16
2023-09-16T10:14:00.752Z,101073.69
2023-09-16T10:15:05.791Z,101065.00
2023-09-16T10:16:07.838Z,101068.94
2023-09-16T10:17:11.588Z,101061.66
2023-09-16T10:18:14.827Z,101060.81
2023-09-16T10:19:16.886Z,101058.28
2023-09-16T10:20:19.007Z,101062.19
2023-09-16T10:21:20.998Z,101055.75
2023-09-16T10:22:23.118Z,101051.81
2023-09-16T10:23:25.220Z,101059.69
2023-09-16T10:24:27.197Z,101065.00
2023-09-16T10:25:31.521Z,101054.06
2023-09-16T10:26:35.934Z,101059.97
2023-09-16T10:27:45.992Z,101061.63
2023-09-16T10:28:50.154Z,101053.44
2023-09-16T10:29:52.367Z,101055.38
2023-09-16T10:30:54.409Z,101055.66
2023-09-16T10:31:56.441Z,101049.75
2023-09-16T10:33:16.107Z,101050.56
2023-09-16T10:34:18.191Z,101045.78
2023-09-16T10:35:21.003Z,101046.06
2023-09-16T10:36:23.128Z,101038.19
2023-09-16T10:37:25.214Z,101044.94
2023-09-16T10:38:27.325Z,101043.53
2023-09-16T10:39:29.320Z,101047.97
2023-09-16T10:40:31.577Z,101035.28
2023-09-16T10:41:34.552Z,101040.03
2023-09-16T10:42:36.576Z,101050.22
2023-09-16T10:43:38.577Z,101039.69
2023-09-16T10:44:41.176Z,101046.34
2023-09-16T10:45:43.214Z,101042.66
2023-09-16T10:46:45.562Z,101042.84
2023-09-16T10:47:47.996Z,101044.81
2023-09-16T10:48:53.239Z,101041.44
2023-09-16T10:49:55.641Z,101043.03
2023-09-16T10:50:59.062Z,101041.00
2023-09-16T10:52:03.959Z,101032.66
2023-09-16T10:53:37.858Z,101037.06
2023-09-16T10:54:45.230Z,101035.28
2023-09-16T10:56:26.579Z,101032.34
2023-09-16T10:57:34.919Z,101030.16
2023-09-16T10:58:50.088Z,101032.06
2023-09-16T10:59:53.051Z,101022.41
2023-09-16T11:00:56.110Z,101036.47
2023-09-16T11:02:00.989Z,101028.19
2023-09-16T11:03:03.098Z,101033.16
2023-09-16T11:04:10.962Z,101025.34
2023-09-16T11:05:13.026Z,101030.59
2023-09-16T11:06:15.007Z,101033.13
2023-09-16T11:07:16.997Z,101026.06
2023-09-16T11:08:19.008Z,101029.31
2023-09-16T11:09:25.019Z,101026.47
2023-09-16T11:10:27.024Z,101026.44
2023-09-16T11:11:29.016Z,101021.91
2023-09-16T11:12:31.103Z,101018.22
2023-09-16T11:13:33.115Z,101022.63
2023-09-16T11:14:35.123Z,101021.22
2023-09-16T11:15:37.307Z,101019.56
2023-09-16T11:16:46.179Z,101009.75
2023-09-16T11:17:49.049Z,101012.16
2023-09-16T11:18:52.446Z,101010.06
2023-09-16T11:19:55.077Z,101008.59
2023-09-16T11:20:57.054Z,101010.41
2023-09-16T11:21:59.555Z,101011.31
2023-09-16T11:23:08.044Z,101000.03
2023-09-16T11:24:10.757Z,101009.44
2023-09-16T11:25:12.903Z,100993.25
2023-09-16T11:26:24.060Z,100993.75
2023-09-16T11:27:26.401Z,101000.66
2023-09-16T11:28:29.539Z,101001.50
2023-09-16T11:29:34.727Z,100998.47
2023-09-16T11:30:37.236Z,101006.06
2023-09-16T11:31:39.481Z,101001.19
2023-09-16T11:33:02.467Z,101000.09
2023-09-16T11:34:04.489Z,101000.63
2023-09-16T11:35:06.659Z,101003.53
2023-09-16T11:36:08.914Z,100996.72
2023-09-16T11:37:10.969Z,100989.69
2023-09-16T11:38:13.168Z,100995.94
2023-09-16T11:39:19.584Z,100995.88
2023-09-16T11:40:28.241Z,100988.34
2023-09-16T11:41:30.248Z,100986.59
2023-09-16T11:42:32.219Z,100984.34
2023-09-16T11:43:34.244Z,100983.50
2023-09-16T11:44:37.035Z,100988.94
2023-09-16T11:45:39.079Z,100982.16
2023-09-16T11:46:41.452Z,100979.16
2023-09-16T11:47:43.510Z,100982.09
2023-09-16T11:48:49.887Z,100976.13
2023-09-16T11:49:52.125Z,100991.41
2023-09-16T11:50:54.132Z,100983.84
2023-09-16T11:51:56.347Z,100987.31
2023-09-16T11:52:58.412Z,100990.81
2023-09-16T11:54:00.446Z,100986.69
2023-09-16T11:55:02.676Z,100988.13
2023-09-16T11:56:05.400Z,100984.84
2023-09-16T11:57:07.454Z,100985.16
2023-09-16T11:58:09.429Z,100980.19
2023-09-16T11:59:11.823Z,100984.91